Time;durP1;ratioP1;P1;durP2;ratioP2;P2;SDS_P1;SDS_P2;PMS_P1;PMS_P2;Temp;Humidity;BMP_temperature;BMP_pressure;BME280_temperature;BME280_humidity;BME280_pressure;Samples;Min_cycle;Max_cycle;Signal;HPM_P1;HPM_P2
2022/04/09 00:00:18;;;;;;;;;13.00;12.00;;;;;-142.59;100.00;56100.38;5111274;27;49748;-63
2022/04/09 00:02:43;;;;;;;;;12.75;10.75;;;;;-142.59;100.00;56100.38;5111730;27;49854;-63
2022/04/09 00:05:12;;;;;;;;;7.75;7.50;;;;;-142.59;100.00;56100.38;5111156;27;49758;-63
2022/04/09 00:07:37;;;;;;;;;8.00;8.00;;;;;-142.59;100.00;56100.38;5111117;27;50000;-63
2022/04/09 00:10:05;;;;;;;;;9.75;9.00;;;;;-142.59;100.00;56100.38;5111259;27;49636;-64
2022/04/09 00:12:31;;;;;;;;;10.00;9.25;;;;;-142.59;100.00;56100.38;5111289;27;49865;-65
2022/04/09 00:14:56;;;;;;;;;11.50;9.25;;;;;-142.59;100.00;56100.38;5111549;27;49973;-64
2022/04/09 00:17:22;;;;;;;;;12.75;9.00;;;;;-142.59;100.00;56100.38;5111205;27;50602;-64
2022/04/09 00:19:48;;;;;;;;;11.50;9.50;;;;;-142.59;100.00;56100.38;5110226;27;49674;-64
2022/04/09 00:22:14;;;;;;;;;6.00;6.00;;;;;-142.59;100.00;56100.38;5111353;27;49774;-65
2022/04/09 00:24:39;;;;;;;;;9.00;7.00;;;;;-142.59;100.00;56100.38;5091410;27;49973;-64
2022/04/09 00:27:05;;;;;;;;;8.00;8.00;;;;;-142.59;100.00;56100.38;5090903;27;49879;-64
2022/04/09 00:29:30;;;;;;;;;10.00;8.75;;;;;-142.59;100.00;56100.38;5091305;27;49671;-64
2022/04/09 00:31:55;;;;;;;;;11.50;11.50;;;;;-142.59;100.00;56100.38;5091136;27;50068;-64
2022/04/09 00:34:21;;;;;;;;;11.75;11.50;;;;;-142.59;100.00;56100.38;5091505;27;49631;-64
2022/04/09 00:36:46;;;;;;;;;9.00;8.50;;;;;-142.59;100.00;56100.38;5091142;27;50337;-64
2022/04/09 00:39:11;;;;;;;;;14.75;12.00;;;;;-142.59;100.00;56100.38;5091245;27;49722;-65
2022/04/09 00:41:40;;;;;;;;;5.00;5.00;;;;;-142.59;100.00;56100.38;5091010;27;50072;-64
2022/04/09 00:44:15;;;;;;;;;7.00;7.00;;;;;-142.59;100.00;56100.38;5091337;27;49891;-64
2022/04/09 00:46:40;;;;;;;;;10.50;10.50;;;;;-142.59;100.00;56100.38;5090699;27;50052;-64
2022/04/09 00:49:05;;;;;;;;;9.25;9.25;;;;;-142.59;100.00;56100.38;5091305;27;49866;-64
2022/04/09 00:51:34;;;;;;;;;12.75;11.50;;;;;-142.59;100.00;56100.38;5091095;27;49645;-65
2022/04/09 00:54:00;;;;;;;;;11.75;9.00;;;;;-142.59;100.00;56100.38;5091247;27;50089;-63
2022/04/09 00:56:25;;;;;;;;;11.25;9.50;;;;;-142.59;100.00;56100.38;5090565;27;50971;-64
2022/04/09 00:58:55;;;;;;;;;9.00;8.25;;;;;-142.59;100.00;56100.38;5090693;27;49733;-65
2022/04/09 01:01:22;;;;;;;;;9.25;8.75;;;;;-142.59;100.00;56100.38;5091038;27;50081;-65
2022/04/09 01:03:49;;;;;;;;;9.75;9.75;;;;;-142.59;100.00;56100.38;5091047;27;49805;-64
2022/04/09 01:06:15;;;;;;;;;9.00;9.00;;;;;-142.59;100.00;56100.38;5090946;27;50935;-64
2022/04/09 01:08:41;;;;;;;;;11.75;9.50;;;;;-142.59;100.00;56100.38;5091052;27;49702;-64
2022/04/09 01:11:06;;;;;;;;;6.75;6.25;;;;;-142.59;100.00;56100.38;5091008;27;49698;-63
2022/04/09 01:13:31;;;;;;;;;10.00;8.25;;;;;-142.59;100.00;56100.38;5091069;27;50210;-64
2022/04/09 01:15:57;;;;;;;;;5.00;5.00;;;;;-142.59;100.00;56100.38;5090514;27;50884;-65
2022/04/09 01:18:23;;;;;;;;;4.25;4.25;;;;;-142.59;100.00;56100.38;5093597;27;49720;-64
2022/04/09 01:20:48;;;;;;;;;4.00;4.00;;;;;-142.59;100.00;56100.38;5094329;27;50007;-64
2022/04/09 01:23:13;;;;;;;;;5.00;4.50;;;;;-142.59;100.00;56100.38;5094811;27;49996;-65
2022/04/09 01:25:40;;;;;;;;;5.25;4.25;;;;;-142.59;100.00;56100.38;5094303;27;49757;-64
2022/04/09 01:28:06;;;;;;;;;2.50;2.00;;;;;-142.59;100.00;56100.38;5094000;27;49805;-65
2022/04/09 01:30:32;;;;;;;;;5.00;4.00;;;;;-142.59;100.00;56100.38;5094284;27;49913;-64
2022/04/09 01:32:57;;;;;;;;;1.25;0.50;;;;;-142.59;100.00;56100.38;5094198;27;49691;-64
2022/04/09 01:35:23;;;;;;;;;5.00;5.00;;;;;-142.59;100.00;56100.38;5093727;27;50154;-64
2022/04/09 01:37:48;;;;;;;;;1.50;1.00;;;;;-142.59;100.00;56100.38;5093937;27;49617;-64
2022/04/09 01:40:14;;;;;;;;;5.75;4.75;;;;;-142.59;100.00;56100.38;5094040;27;49933;-64
2022/04/09 01:42:39;;;;;;;;;7.00;3.50;;;;;-142.59;100.00;56100.38;5093996;27;49837;-64
2022/04/09 01:45:09;;;;;;;;;3.50;3.50;;;;;-142.59;100.00;56100.38;5093586;27;50554;-63
2022/04/09 01:47:36;;;;;;;;;5.75;5.00;;;;;-142.59;100.00;56100.38;5094047;27;49705;-64
2022/04/09 01:50:02;;;;;;;;;6.00;6.00;;;;;-142.59;100.00;56100.38;5093987;27;49842;-64
2022/04/09 01:52:27;;;;;;;;;6.50;6.50;;;;;-142.59;100.00;56100.38;5094070;27;49773;-63
2022/04/09 01:54:52;;;;;;;;;8.00;8.00;;;;;-142.59;100.00;56100.38;5093497;27;50602;-63
2022/04/09 01:57:18;;;;;;;;;6.00;6.00;;;;;-142.59;100.00;56100.38;5093327;27;49971;-63
2022/04/09 01:59:44;;;;;;;;;9.00;9.00;;;;;-142.59;100.00;56100.38;5093778;27;49624;-64
2022/04/09 02:02:09;;;;;;;;;7.25;7.25;;;;;-142.59;100.00;56100.38;5093899;27;49682;-64
2022/04/09 02:04:35;;;;;;;;;8.50;7.00;;;;;-142.59;100.00;56100.38;5093603;27;49650;-64
2022/04/09 02:07:00;;;;;;;;;8.00;8.00;;;;;-142.59;100.00;56100.38;5093704;27;50072;-64
2022/04/09 02:09:26;;;;;;;;;9.75;9.75;;;;;-142.59;100.00;56100.38;5093545;27;49689;-64
2022/04/09 02:11:52;;;;;;;;;7.00;6.00;;;;;-142.59;100.00;56100.38;5093165;27;49885;-64
2022/04/09 02:14:17;;;;;;;;;8.75;8.50;;;;;-142.59;100.00;56100.38;5093133;27;50676;-65
2022/04/09 02:16:42;;;;;;;;;7.75;7.25;;;;;-142.59;100.00;56100.38;5093213;27;51825;-66
2022/04/09 02:19:08;;;;;;;;;7.00;6.00;;;;;-142.59;100.00;56100.38;5093572;27;49786;-65
2022/04/09 02:21:34;;;;;;;;;11.00;9.00;;;;;-142.59;100.00;56100.38;5093726;27;49982;-65
2022/04/09 02:24:00;;;;;;;;;11.75;11.75;;;;;-142.59;100.00;56100.38;5093219;27;49973;-66
2022/04/09 02:26:25;;;;;;;;;9.00;9.00;;;;;-142.59;100.00;56100.38;5093001;27;49796;-65
2022/04/09 02:28:52;;;;;;;;;10.00;8.50;;;;;-142.59;100.00;56100.38;5092936;27;49852;-65
2022/04/09 02:31:17;;;;;;;;;8.00;8.00;;;;;-142.59;100.00;56100.38;5113306;27;49828;-65
2022/04/09 02:33:46;;;;;;;;;6.00;5.25;;;;;-142.59;100.00;56100.38;5112885;27;49680;-65
2022/04/09 02:36:13;;;;;;;;;12.00;9.75;;;;;-142.59;100.00;56100.38;5093028;27;49911;-65
2022/04/09 02:38:42;;;;;;;;;10.00;8.25;;;;;-142.59;100.00;56100.38;5093220;27;49841;-65
2022/04/09 02:41:09;;;;;;;;;12.00;12.00;;;;;-142.59;100.00;56100.38;5093086;27;49738;-65
2022/04/09 02:43:35;;;;;;;;;12.00;12.00;;;;;-142.59;100.00;56100.38;5092587;27;49722;-65
2022/04/09 02:46:01;;;;;;;;;13.50;12.00;;;;;-142.59;100.00;56100.38;5092882;27;49890;-64
2022/04/09 02:48:26;;;;;;;;;12.50;12.00;;;;;-142.59;100.00;56100.38;5092908;27;49946;-64
2022/04/09 02:50:51;;;;;;;;;16.00;11.00;;;;;-142.59;100.00;56100.38;5092952;27;49611;-64
2022/04/09 02:53:17;;;;;;;;;15.25;14.50;;;;;-142.59;100.00;56100.38;5092770;27;50370;-64
2022/04/09 02:55:42;;;;;;;;;8.75;8.00;;;;;-142.59;100.00;56100.38;5092193;27;53670;-64
2022/04/09 02:58:07;;;;;;;;;14.00;10.00;;;;;-142.59;100.00;56100.38;5092766;27;50000;-64
2022/04/09 03:00:36;;;;;;;;;11.00;11.00;;;;;-142.59;100.00;56100.38;5092568;27;52199;-64
2022/04/09 03:03:01;;;;;;;;;15.50;12.50;;;;;-142.59;100.00;56100.38;5092610;27;50934;-64
2022/04/09 03:05:27;;;;;;;;;19.50;15.00;;;;;-142.59;100.00;56100.38;5092637;27;49738;-64
2022/04/09 03:07:52;;;;;;;;;12.00;10.00;;;;;-142.59;100.00;56100.38;5092487;27;49775;-64
2022/04/09 03:10:17;;;;;;;;;12.75;12.75;;;;;-142.59;100.00;56100.38;5091317;27;49887;-64
2022/04/09 03:12:44;;;;;;;;;13.25;12.50;;;;;-142.59;100.00;56100.38;5092188;27;49828;-63
2022/04/09 03:15:10;;;;;;;;;13.00;12.25;;;;;-142.59;100.00;56100.38;5092516;27;49773;-64
2022/04/09 03:17:35;;;;;;;;;11.50;11.00;;;;;-142.59;100.00;56100.38;5092594;27;49726;-64
2022/04/09 03:20:00;;;;;;;;;15.25;12.75;;;;;-142.59;100.00;56100.38;5092477;27;49674;-64
2022/04/09 03:22:27;;;;;;;;;17.00;13.00;;;;;-142.59;100.00;56100.38;5090726;27;51279;-64
2022/04/09 03:24:58;;;;;;;;;14.25;11.50;;;;;-142.59;100.00;56100.38;5092051;27;49814;-64
2022/04/09 03:27:24;;;;;;;;;10.25;8.50;;;;;-142.59;100.00;56100.38;5092033;27;49694;-64
2022/04/09 03:29:50;;;;;;;;;14.00;13.00;;;;;-142.59;100.00;56100.38;5092302;27;49958;-63
2022/04/09 03:32:15;;;;;;;;;12.75;12.75;;;;;-142.59;100.00;56100.38;5092048;27;50831;-64
2022/04/09 03:34:41;;;;;;;;;15.00;14.00;;;;;-142.59;100.00;56100.38;5092220;27;49768;-65
2022/04/09 03:37:06;;;;;;;;;15.50;15.50;;;;;-142.59;100.00;56100.38;5092244;27;50117;-65
2022/04/09 03:39:32;;;;;;;;;16.25;15.25;;;;;-142.59;100.00;56100.38;5091561;27;49624;-64
2022/04/09 03:41:57;;;;;;;;;12.00;12.00;;;;;-142.59;100.00;56100.38;5098295;27;50454;-72
2022/04/09 03:44:23;;;;;;;;;10.50;10.00;;;;;-142.59;100.00;56100.38;5091948;27;49914;-64
2022/04/09 03:46:48;;;;;;;;;16.00;16.00;;;;;-142.59;100.00;56100.38;5092092;27;49725;-65
2022/04/09 03:49:15;;;;;;;;;12.25;12.25;;;;;-142.59;100.00;56100.38;5091676;27;61439;-64
2022/04/09 03:51:40;;;;;;;;;20.00;13.75;;;;;-142.59;100.00;56100.38;5091710;27;51359;-64
2022/04/09 03:54:05;;;;;;;;;14.50;14.50;;;;;-142.59;100.00;56100.38;5091701;27;49984;-65
2022/04/09 03:56:31;;;;;;;;;12.75;12.75;;;;;-142.59;100.00;56100.38;5091443;27;50026;-65
2022/04/09 03:58:56;;;;;;;;;20.00;15.00;;;;;-142.59;100.00;56100.38;5091993;27;49909;-66
2022/04/09 04:01:24;;;;;;;;;19.00;17.00;;;;;-142.59;100.00;56100.38;5091439;27;49791;-65
2022/04/09 04:03:50;;;;;;;;;12.25;12.25;;;;;-142.59;100.00;56100.38;5090211;27;50020;-67
2022/04/09 04:06:16;;;;;;;;;14.25;13.25;;;;;-142.59;100.00;56100.38;5091942;27;50083;-66
2022/04/09 04:08:41;;;;;;;;;18.50;17.00;;;;;-142.59;100.00;56100.38;5090602;27;49830;-66
2022/04/09 04:11:06;;;;;;;;;15.75;13.75;;;;;-142.59;100.00;56100.38;5091089;27;62622;-66
2022/04/09 04:13:35;;;;;;;;;17.00;17.00;;;;;-142.59;100.00;56100.38;5091597;27;50015;-66
2022/04/09 04:16:03;;;;;;;;;16.00;15.50;;;;;-142.59;100.00;56100.38;5090063;27;49880;-66
2022/04/09 04:18:28;;;;;;;;;16.75;16.75;;;;;-142.59;100.00;56100.38;5091591;27;49965;-66
2022/04/09 04:20:53;;;;;;;;;22.00;18.00;;;;;-142.59;100.00;56100.38;5091123;27;49745;-68
2022/04/09 04:23:20;;;;;;;;;16.75;15.50;;;;;-142.59;100.00;56100.38;5091456;27;49919;-66
2022/04/09 04:25:45;;;;;;;;;21.00;18.50;;;;;-142.59;100.00;56100.38;5090125;27;49710;-67
2022/04/09 04:28:10;;;;;;;;;13.00;10.00;;;;;-142.59;100.00;56100.38;5091185;27;55448;-66
2022/04/09 04:30:36;;;;;;;;;16.00;13.25;;;;;-142.59;100.00;56100.38;5091163;27;50509;-68
2022/04/09 04:33:01;;;;;;;;;16.75;15.75;;;;;-142.59;100.00;56100.38;5091120;27;49873;-66
2022/04/09 04:35:26;;;;;;;;;13.00;13.00;;;;;-142.59;100.00;56100.38;5091114;27;49925;-67
2022/04/09 04:37:54;;;;;;;;;12.00;12.00;;;;;-142.59;100.00;56100.38;5091296;27;49964;-69
2022/04/09 04:40:19;;;;;;;;;18.25;16.25;;;;;-142.59;100.00;56100.38;5097802;27;49860;-68
2022/04/09 04:42:45;;;;;;;;;15.25;13.00;;;;;-142.59;100.00;56100.38;5091204;27;50024;-66
2022/04/09 04:45:11;;;;;;;;;15.75;13.50;;;;;-142.59;100.00;56100.38;5091237;27;49867;-66
2022/04/09 04:47:46;;;;;;;;;16.00;14.50;;;;;-142.59;100.00;56100.38;5091372;27;49753;-65
2022/04/09 04:50:13;;;;;;;;;17.25;16.50;;;;;-142.59;100.00;56100.38;5090719;27;49911;-65
2022/04/09 04:52:38;;;;;;;;;18.50;16.75;;;;;-142.59;100.00;56100.38;5092701;27;49781;-66
2022/04/09 04:55:04;;;;;;;;;10.50;9.25;;;;;-142.59;100.00;56100.38;5094714;27;49853;-67
2022/04/09 04:57:39;;;;;;;;;9.50;9.25;;;;;-142.59;100.00;56100.38;5094798;27;50561;-66
2022/04/09 05:00:05;;;;;;;;;16.25;16.25;;;;;-142.59;100.00;56100.38;5094254;27;50366;-65
2022/04/09 05:02:30;;;;;;;;;18.50;17.00;;;;;-142.59;100.00;56100.38;5094717;27;49869;-67
2022/04/09 05:04:56;;;;;;;;;21.50;18.50;;;;;-142.59;100.00;56100.38;5093902;27;66231;-65
2022/04/09 05:07:22;;;;;;;;;27.00;23.75;;;;;-142.59;100.00;56100.38;5094740;27;50051;-65
2022/04/09 05:09:47;;;;;;;;;25.75;22.00;;;;;-142.59;100.00;56100.38;5094171;27;49678;-65
2022/04/09 05:12:13;;;;;;;;;24.50;23.00;;;;;-142.59;100.00;56100.38;5094437;27;49948;-64
2022/04/09 05:14:38;;;;;;;;;18.00;17.25;;;;;-142.59;100.00;56100.38;5094004;27;51038;-64
2022/04/09 05:17:03;;;;;;;;;31.50;27.75;;;;;-142.59;100.00;56100.38;5094402;27;49711;-64
2022/04/09 05:19:29;;;;;;;;;26.50;21.00;;;;;-142.59;100.00;56100.38;5094362;27;51961;-65
2022/04/09 05:21:54;;;;;;;;;26.75;24.00;;;;;-142.59;100.00;56100.38;5094415;27;49689;-66
2022/04/09 05:24:20;;;;;;;;;20.50;19.25;;;;;-142.59;100.00;56100.38;5093836;27;62082;-66
2022/04/09 05:26:45;;;;;;;;;24.25;19.75;;;;;-142.59;100.00;56100.38;5094372;27;49778;-66
2022/04/09 05:29:10;;;;;;;;;20.50;19.25;;;;;-142.59;100.00;56100.38;5093143;27;66452;-66
2022/04/09 05:31:35;;;;;;;;;20.50;20.25;;;;;-142.59;100.00;56100.38;5093879;27;50108;-67
2022/04/09 05:34:01;;;;;;;;;20.00;19.50;;;;;-142.59;100.00;56100.38;5093421;27;61038;-67
2022/04/09 05:36:26;;;;;;;;;21.00;21.00;;;;;-142.59;100.00;56100.38;5096071;27;54693;-64
2022/04/09 05:38:51;;;;;;;;;24.25;23.50;;;;;-142.59;100.00;56100.38;5092065;27;64973;-65
2022/04/09 05:41:17;;;;;;;;;15.25;13.25;;;;;-142.59;100.00;56100.38;5094098;27;49869;-63
2022/04/09 05:43:42;;;;;;;;;20.50;19.25;;;;;-142.59;100.00;56100.38;5093793;27;50025;-64
2022/04/09 05:46:07;;;;;;;;;18.00;17.25;;;;;-142.59;100.00;56100.38;5093290;27;56277;-64
2022/04/09 05:48:33;;;;;;;;;20.00;18.50;;;;;-142.59;100.00;56100.38;5093647;27;49894;-64
2022/04/09 05:50:59;;;;;;;;;20.50;20.50;;;;;-142.59;100.00;56100.38;5093742;27;49706;-64
2022/04/09 05:53:24;;;;;;;;;19.00;17.50;;;;;-142.59;100.00;56100.38;5093854;27;49713;-64
2022/04/09 05:55:49;;;;;;;;;24.25;22.25;;;;;-142.59;100.00;56100.38;5093665;27;50025;-65
2022/04/09 05:58:15;;;;;;;;;21.00;21.00;;;;;-142.59;100.00;56100.38;5092915;27;63062;-64
2022/04/09 06:00:40;;;;;;;;;26.75;21.50;;;;;-142.59;100.00;56100.38;5093398;27;53991;-64
2022/04/09 06:03:06;;;;;;;;;17.00;17.00;;;;;-142.59;100.00;56100.38;5093001;27;50342;-64
2022/04/09 06:05:31;;;;;;;;;20.25;18.25;;;;;-142.59;100.00;56100.38;5093785;27;49873;-65
2022/04/09 06:07:56;;;;;;;;;14.00;13.75;;;;;-142.59;100.00;56100.38;5093391;27;50493;-64
2022/04/09 06:10:22;;;;;;;;;17.25;12.75;;;;;-142.59;100.00;56100.38;5093555;27;49751;-64
2022/04/09 06:12:47;;;;;;;;;19.00;17.75;;;;;-142.59;100.00;56100.38;5093446;27;49741;-64
2022/04/09 06:15:12;;;;;;;;;22.50;19.75;;;;;-142.59;100.00;56100.38;5093454;27;49731;-64
2022/04/09 06:17:39;;;;;;;;;14.00;14.00;;;;;-142.59;100.00;56100.38;5093431;27;50309;-64
2022/04/09 06:20:06;;;;;;;;;21.75;17.50;;;;;-142.59;100.00;56100.38;5093516;27;49776;-64
2022/04/09 06:22:32;;;;;;;;;16.50;15.75;;;;;-142.59;100.00;56100.38;5093383;27;49752;-64
2022/04/09 06:24:57;;;;;;;;;20.00;17.50;;;;;-142.59;100.00;56100.38;5093291;27;49849;-65
2022/04/09 06:27:23;;;;;;;;;17.50;15.00;;;;;-142.59;100.00;56100.38;5093300;27;51106;-64
2022/04/09 06:29:48;;;;;;;;;13.75;13.00;;;;;-142.59;100.00;56100.38;5092946;27;49934;-64
2022/04/09 06:32:13;;;;;;;;;17.00;16.00;;;;;-142.59;100.00;56100.38;5093205;27;49748;-65
2022/04/09 06:34:39;;;;;;;;;15.00;15.00;;;;;-142.59;100.00;56100.38;5092558;27;60365;-64
2022/04/09 06:37:04;;;;;;;;;22.00;18.25;;;;;-142.59;100.00;56100.38;5092932;27;50562;-65
2022/04/09 06:39:30;;;;;;;;;18.00;16.75;;;;;-142.59;100.00;56100.38;5092962;27;49897;-65
2022/04/09 06:41:55;;;;;;;;;18.25;17.75;;;;;-142.59;100.00;56100.38;5092904;27;49835;-64
2022/04/09 06:44:21;;;;;;;;;14.75;14.75;;;;;-142.59;100.00;56100.38;5092258;27;55730;-65
2022/04/09 06:46:46;;;;;;;;;15.75;15.50;;;;;-142.59;100.00;56100.38;5092691;27;50370;-65
2022/04/09 06:49:13;;;;;;;;;15.00;15.00;;;;;-142.59;100.00;56100.38;5093022;27;49951;-64
2022/04/09 06:51:39;;;;;;;;;25.50;19.00;;;;;-142.59;100.00;56100.38;5091703;27;49887;-64
2022/04/09 06:54:05;;;;;;;;;22.50;20.00;;;;;-142.59;100.00;56100.38;5093158;27;49948;-64
2022/04/09 06:56:30;;;;;;;;;19.50;19.50;;;;;-142.59;100.00;56100.38;5092351;27;50958;-64
2022/04/09 06:58:56;;;;;;;;;25.75;22.75;;;;;-142.59;100.00;56100.38;5092056;27;58256;-64
2022/04/09 07:01:21;;;;;;;;;25.75;22.50;;;;;-142.59;100.00;56100.38;5092756;27;49852;-64
2022/04/09 07:03:46;;;;;;;;;20.75;20.75;;;;;-142.59;100.00;56100.38;5092100;27;57942;-64
2022/04/09 07:06:13;;;;;;;;;24.00;21.50;;;;;-142.59;100.00;56100.38;5092594;27;51078;-64
2022/04/09 07:08:39;;;;;;;;;28.25;25.75;;;;;-142.59;100.00;56100.38;5092584;27;49810;-65
2022/04/09 07:11:05;;;;;;;;;26.00;23.50;;;;;-142.59;100.00;56100.38;5092517;27;49732;-65
2022/04/09 07:13:31;;;;;;;;;29.00;25.50;;;;;-142.59;100.00;56100.38;5092623;27;49750;-64
2022/04/09 07:15:56;;;;;;;;;21.75;20.25;;;;;-142.59;100.00;56100.38;5091306;27;51815;-65
2022/04/09 07:18:22;;;;;;;;;24.25;21.50;;;;;-142.59;100.00;56100.38;5092474;27;49764;-65
2022/04/09 07:20:47;;;;;;;;;18.50;16.75;;;;;-142.59;100.00;56100.38;5092526;27;50218;-65
2022/04/09 07:23:13;;;;;;;;;16.75;14.50;;;;;-142.59;100.00;56100.38;5091186;27;49643;-65
2022/04/09 07:25:38;;;;;;;;;10.25;9.75;;;;;-142.59;100.00;56100.38;5092278;27;50706;-67
2022/04/09 07:28:03;;;;;;;;;15.00;15.00;;;;;-142.59;100.00;56100.38;5121313;27;49746;-63
2022/04/09 07:30:29;;;;;;;;;18.75;18.25;;;;;-142.59;100.00;56100.38;5110099;27;50012;-64
2022/04/09 07:32:58;;;;;;;;;12.00;11.75;;;;;-142.59;100.00;56100.38;5099313;27;49990;-64
2022/04/09 07:35:25;;;;;;;;;18.00;16.25;;;;;-142.59;100.00;56100.38;5095683;27;50631;-64
2022/04/09 07:37:55;;;;;;;;;16.75;15.00;;;;;-142.59;100.00;56100.38;5089410;27;49875;-64
2022/04/09 07:40:24;;;;;;;;;19.25;19.00;;;;;-142.59;100.00;56100.38;5092082;27;49806;-64
2022/04/09 07:42:50;;;;;;;;;16.50;16.50;;;;;-142.59;100.00;56100.38;5092111;27;49708;-64
2022/04/09 07:45:16;;;;;;;;;19.25;16.75;;;;;-142.59;100.00;56100.38;5091345;27;50258;-64
2022/04/09 07:47:43;;;;;;;;;17.50;15.50;;;;;-142.59;100.00;56100.38;5091970;27;49870;-64
2022/04/09 07:50:10;;;;;;;;;14.50;14.50;;;;;-142.59;100.00;56100.38;5092053;27;49966;-64
2022/04/09 07:52:40;;;;;;;;;22.50;19.25;;;;;-142.59;100.00;56100.38;5092082;27;50240;-63
2022/04/09 07:55:11;;;;;;;;;16.25;15.25;;;;;-142.59;100.00;56100.38;5091441;27;50624;-63
2022/04/09 07:57:36;;;;;;;;;20.00;18.50;;;;;-142.59;100.00;56100.38;5091727;27;49738;-63
2022/04/09 08:00:03;;;;;;;;;14.25;12.75;;;;;-142.59;100.00;56100.38;5094275;27;49850;-63
2022/04/09 08:02:28;;;;;;;;;17.50;16.00;;;;;-142.59;100.00;56100.38;5091970;27;49933;-63
2022/04/09 08:04:53;;;;;;;;;17.25;17.25;;;;;-142.59;100.00;56100.38;5090985;27;68451;-63
2022/04/09 08:07:18;;;;;;;;;14.00;14.00;;;;;-142.59;100.00;56100.38;5090841;27;66290;-64
2022/04/09 08:09:44;;;;;;;;;11.25;11.25;;;;;-142.59;100.00;56100.38;5091462;27;49863;-63
2022/04/09 08:12:12;;;;;;;;;11.00;8.75;;;;;-142.59;100.00;56100.38;5091725;27;49958;-67
2022/04/09 08:14:38;;;;;;;;;15.75;15.00;;;;;-142.59;100.00;56100.38;5091018;27;50522;-68
2022/04/09 08:17:07;;;;;;;;;15.75;14.00;;;;;-142.59;100.00;56100.38;5104614;27;49769;-66
2022/04/09 08:19:34;;;;;;;;;12.00;12.00;;;;;-142.59;100.00;56100.38;5090588;27;50080;-64
2022/04/09 08:22:00;;;;;;;;;10.75;7.75;;;;;-142.59;100.00;56100.38;5109089;27;49672;-69
2022/04/09 08:24:26;;;;;;;;;6.75;6.75;;;;;-142.59;100.00;56100.38;5110914;27;50984;-61
2022/04/09 08:26:51;;;;;;;;;8.00;7.25;;;;;-142.59;100.00;56100.38;5110894;27;49815;-62
2022/04/09 08:29:19;;;;;;;;;11.50;11.50;;;;;-142.59;100.00;56100.38;5110814;27;49737;-64
2022/04/09 08:31:47;;;;;;;;;11.25;11.25;;;;;-142.59;100.00;56100.38;5110654;27;49832;-62
2022/04/09 08:34:12;;;;;;;;;11.00;10.25;;;;;-142.59;100.00;56100.38;5106711;27;50672;-68
2022/04/09 08:36:37;;;;;;;;;10.25;10.25;;;;;-142.59;100.00;56100.38;5098080;27;49928;-63
2022/04/09 08:39:03;;;;;;;;;9.75;9.00;;;;;-142.59;100.00;56100.38;5094804;27;49908;-62
2022/04/09 08:41:28;;;;;;;;;9.50;9.50;;;;;-142.59;100.00;56100.38;5089607;27;50110;-63
2022/04/09 08:43:54;;;;;;;;;10.00;8.50;;;;;-142.59;100.00;56100.38;5090729;27;50450;-71
2022/04/09 08:46:20;;;;;;;;;6.75;5.00;;;;;-142.59;100.00;56100.38;5095028;27;49681;-60
2022/04/09 08:48:48;;;;;;;;;9.25;9.25;;;;;-142.59;100.00;56100.38;5091070;27;49714;-62
2022/04/09 08:51:13;;;;;;;;;9.50;9.50;;;;;-142.59;100.00;56100.38;5096786;27;49973;-63
2022/04/09 08:53:40;;;;;;;;;11.75;9.25;;;;;-142.59;100.00;56100.38;5090757;27;49731;-60
2022/04/09 08:56:06;;;;;;;;;12.75;10.00;;;;;-142.59;100.00;56100.38;5092576;27;49752;-61
2022/04/09 08:58:31;;;;;;;;;14.25;10.50;;;;;-142.59;100.00;56100.38;5091362;27;49885;-60
2022/04/09 09:00:57;;;;;;;;;9.25;7.00;;;;;-142.59;100.00;56100.38;5091178;27;49892;-60
2022/04/09 09:03:24;;;;;;;;;7.00;7.00;;;;;-142.59;100.00;56100.38;5090737;27;50274;-60
2022/04/09 09:05:52;;;;;;;;;10.50;10.50;;;;;-142.59;100.00;56100.38;5090575;27;49857;-63
2022/04/09 09:08:35;;;;;;;;;6.00;5.75;;;;;-142.59;100.00;56100.38;5089805;27;49976;-62
2022/04/09 09:11:00;;;;;;;;;10.75;8.25;;;;;-142.59;100.00;56100.38;5090921;27;49781;-62
2022/04/09 09:13:26;;;;;;;;;10.00;10.00;;;;;-142.59;100.00;56100.38;5091088;27;50672;-64
2022/04/09 09:15:53;;;;;;;;;9.50;8.00;;;;;-142.59;100.00;56100.38;5090109;27;65576;-64
2022/04/09 09:18:26;;;;;;;;;10.75;8.50;;;;;-142.59;100.00;56100.38;5090820;27;49862;-62
2022/04/09 09:21:00;;;;;;;;;8.50;8.25;;;;;-142.59;100.00;56100.38;5091327;27;49956;-73
2022/04/09 09:23:32;;;;;;;;;10.00;6.75;;;;;-142.59;100.00;56100.38;5090419;27;50201;-68
2022/04/09 09:25:59;;;;;;;;;13.25;11.25;;;;;-142.59;100.00;56100.38;5090476;27;49761;-70
2022/04/09 09:28:32;;;;;;;;;9.75;9.50;;;;;-142.59;100.00;56100.38;5091341;27;49834;-67
2022/04/09 09:30:59;;;;;;;;;8.25;8.25;;;;;-142.59;100.00;56100.38;5090705;27;49684;-67
2022/04/09 09:33:26;;;;;;;;;11.00;10.50;;;;;-142.59;100.00;56100.38;5090670;27;50478;-68
2022/04/09 09:35:56;;;;;;;;;11.75;11.75;;;;;-142.59;100.00;56100.38;5090550;27;50223;-67
2022/04/09 09:38:32;;;;;;;;;7.00;6.25;;;;;-142.59;100.00;56100.38;5091846;27;50014;-68
2022/04/09 09:41:03;;;;;;;;;9.50;7.00;;;;;-142.59;100.00;56100.38;5093999;27;49963;-68
2022/04/09 09:43:29;;;;;;;;;5.50;5.00;;;;;-142.59;100.00;56100.38;5105042;27;50733;-70
2022/04/09 09:45:55;;;;;;;;;6.25;6.25;;;;;-142.59;100.00;56100.38;5109329;27;50001;-75
2022/04/09 09:48:28;;;;;;;;;11.25;8.00;;;;;-142.59;100.00;56100.38;5110766;27;49338;-74
2022/04/09 09:50:55;;;;;;;;;14.25;13.25;;;;;-142.59;100.00;56100.38;5109482;27;49712;-75
2022/04/09 09:53:32;;;;;;;;;10.25;7.00;;;;;-142.59;100.00;56100.38;5111495;27;49976;-78
2022/04/09 09:55:59;;;;;;;;;10.75;10.75;;;;;-142.59;100.00;56100.38;5109117;27;49479;-76
2022/04/09 09:58:27;;;;;;;;;6.75;6.75;;;;;-142.59;100.00;56100.38;5106662;27;49281;-71
2022/04/09 10:00:55;;;;;;;;;5.00;5.00;;;;;-142.59;100.00;56100.38;5110049;27;49966;-66
2022/04/09 10:03:21;;;;;;;;;6.25;6.00;;;;;-142.59;100.00;56100.38;5126090;27;49847;-66
2022/04/09 10:05:49;;;;;;;;;6.25;6.00;;;;;-142.59;100.00;56100.38;5124655;27;49726;-68
2022/04/09 10:08:14;;;;;;;;;6.00;6.00;;;;;-142.59;100.00;56100.38;5130903;27;49355;-67
2022/04/09 10:10:43;;;;;;;;;9.50;9.50;;;;;-142.59;100.00;56100.38;5131308;27;49704;-71
2022/04/09 10:13:08;;;;;;;;;7.00;7.00;;;;;-142.59;100.00;56100.38;5130083;27;49927;-69
2022/04/09 10:15:34;;;;;;;;;11.25;10.00;;;;;-142.59;100.00;56100.38;5130365;27;49642;-71
2022/04/09 10:18:01;;;;;;;;;10.75;10.00;;;;;-142.59;100.00;56100.38;5130469;27;49803;-71
2022/04/09 10:20:29;;;;;;;;;7.75;7.75;;;;;-142.59;100.00;56100.38;5119468;27;49550;-72
2022/04/09 10:23:00;;;;;;;;;9.50;7.75;;;;;-142.59;100.00;56100.38;5107681;27;51921;-75
2022/04/09 10:25:28;;;;;;;;;10.75;9.50;;;;;-142.59;100.00;56100.38;5110261;27;49830;-71
2022/04/09 10:28:00;;;;;;;;;7.00;6.25;;;;;-142.59;100.00;56100.38;5102472;27;49742;-65
2022/04/09 10:30:28;;;;;;;;;15.25;11.75;;;;;-142.59;100.00;56100.38;5109004;27;49382;-68
2022/04/09 10:32:59;;;;;;;;;11.50;8.00;;;;;-142.59;100.00;56100.38;5107104;27;51705;-67
2022/04/09 10:35:38;;;;;;;;;11.00;8.00;;;;;-142.59;100.00;56100.38;5107329;27;49697;-68
2022/04/09 10:38:07;;;;;;;;;9.50;9.50;;;;;-142.59;100.00;56100.38;5114707;27;49487;-66
2022/04/09 10:40:52;;;;;;;;;9.00;9.00;;;;;-142.59;100.00;56100.38;5107981;27;49742;-67
2022/04/09 10:43:20;;;;;;;;;9.25;9.25;;;;;-142.59;100.00;56100.38;5110313;27;50055;-67
2022/04/09 10:46:05;;;;;;;;;9.00;7.00;;;;;-142.59;100.00;56100.38;5111437;27;49461;-67
2022/04/09 10:48:42;;;;;;;;;10.50;8.00;;;;;-142.59;100.00;56100.38;5110141;27;49472;-66
2022/04/09 10:51:14;;;;;;;;;10.50;8.75;;;;;-142.59;100.00;56100.38;5110270;27;49491;-64
2022/04/09 10:53:49;;;;;;;;;7.25;7.25;;;;;-142.59;100.00;56100.38;5123118;27;49714;-63
2022/04/09 10:56:24;;;;;;;;;8.00;8.00;;;;;-142.59;100.00;56100.38;5128369;27;49489;-63